createdAt,value
2019-03-23T00:00:39.715Z,9.83
2019-03-23T00:03:10.793Z,9.81
2019-03-23T00:05:41.776Z,9.77
2019-03-23T00:08:12.802Z,9.74
2019-03-23T00:10:54.201Z,9.73
2019-03-23T00:13:23.601Z,9.04
2019-03-23T00:15:54.592Z,9.69
2019-03-23T00:18:25.574Z,9.68
2019-03-23T00:20:56.586Z,9.68
2019-03-23T00:23:27.618Z,9.66
2019-03-23T00:25:58.617Z,9.67
2019-03-23T00:28:29.742Z,9.66
2019-03-23T00:31:00.731Z,9.64
2019-03-23T00:33:31.752Z,9.62
2019-03-23T00:36:02.878Z,9.63
2019-03-23T00:38:33.871Z,9.62
2019-03-23T00:41:05.038Z,9.51
2019-03-23T00:43:36.065Z,9.48
2019-03-23T00:46:07.066Z,9.49
2019-03-23T00:48:38.142Z,9.48
2019-03-23T00:51:09.142Z,9.46
2019-03-23T00:53:40.132Z,9.48
2019-03-23T00:56:11.164Z,9.45
2019-03-23T00:58:42.155Z,9.44
2019-03-23T01:01:13.154Z,9.45
2019-03-23T01:03:44.187Z,9.15
2019-03-23T01:06:15.174Z,9.26
2019-03-23T01:08:46.194Z,9.16
2019-03-23T01:11:17.218Z,9.31
2019-03-23T01:13:48.192Z,8.68
2019-03-23T01:16:19.212Z,9.28
2019-03-23T01:18:50.233Z,9.35
2019-03-23T01:21:21.260Z,9.39
2019-03-23T01:23:52.250Z,9.30
2019-03-23T01:26:23.287Z,9.31
2019-03-23T01:28:54.374Z,9.35
2019-03-23T01:31:25.409Z,9.35
2019-03-23T01:33:56.393Z,9.36
2019-03-23T01:36:27.409Z,9.40
2019-03-23T01:38:58.405Z,9.40
2019-03-23T01:41:29.430Z,9.39
2019-03-23T01:44:00.417Z,9.36
2019-03-23T01:46:31.454Z,9.34
2019-03-23T01:49:02.443Z,9.32
2019-03-23T01:51:33.474Z,9.30
2019-03-23T01:54:07.403Z,9.26
2019-03-23T01:56:38.433Z,9.24
2019-03-23T01:59:09.424Z,9.23
2019-03-23T02:01:40.458Z,9.22
2019-03-23T02:04:11.452Z,9.19
2019-03-23T02:06:42.467Z,9.16
2019-03-23T02:09:13.449Z,9.13
2019-03-23T02:11:44.490Z,9.10
2019-03-23T02:14:15.471Z,9.06
2019-03-23T02:16:46.457Z,8.32
2019-03-23T02:19:17.478Z,8.93
2019-03-23T02:21:48.461Z,8.90
2019-03-23T02:24:19.489Z,8.86
2019-03-23T02:26:50.512Z,8.83
2019-03-23T02:29:21.546Z,8.79
2019-03-23T02:31:52.544Z,8.75
2019-03-23T02:34:23.570Z,8.73
2019-03-23T02:36:54.567Z,8.69
2019-03-23T02:39:25.594Z,8.65
2019-03-23T02:41:56.624Z,8.62
2019-03-23T02:44:27.606Z,8.60
2019-03-23T02:46:58.619Z,8.57
2019-03-23T02:49:29.664Z,8.53
2019-03-23T02:52:00.639Z,8.52
2019-03-23T02:54:31.669Z,8.48
2019-03-23T02:57:02.670Z,8.46
2019-03-23T02:59:33.694Z,8.43
2019-03-23T03:02:04.899Z,8.41
2019-03-23T03:04:35.923Z,8.35
2019-03-23T03:07:06.909Z,8.30
2019-03-23T03:09:37.931Z,8.26
2019-03-23T03:12:08.905Z,8.22
2019-03-23T03:14:39.896Z,8.17
2019-03-23T03:17:10.931Z,8.12
2019-03-23T03:19:41.947Z,8.09
2019-03-23T03:22:12.979Z,8.06
2019-03-23T03:24:44.115Z,8.03
2019-03-23T03:27:15.105Z,7.95
2019-03-23T03:29:46.116Z,7.94
2019-03-23T03:32:17.185Z,7.77
2019-03-23T03:34:48.198Z,7.83
2019-03-23T03:37:19.239Z,7.82
2019-03-23T03:39:50.261Z,7.79
2019-03-23T03:42:21.299Z,7.73
2019-03-23T03:44:52.293Z,7.68
2019-03-23T03:47:23.312Z,7.69
2019-03-23T03:49:54.296Z,7.72
2019-03-23T03:52:25.323Z,7.67
2019-03-23T03:54:56.307Z,7.65
2019-03-23T03:57:27.282Z,7.61
2019-03-23T03:59:58.262Z,7.63
2019-03-23T04:02:29.291Z,7.67
2019-03-23T04:05:00.526Z,7.73
2019-03-23T04:07:31.593Z,7.78
2019-03-23T04:10:02.577Z,7.78
2019-03-23T04:12:33.624Z,7.83
2019-03-23T04:15:04.717Z,7.85
2019-03-23T04:17:35.706Z,7.87
2019-03-23T04:20:07.476Z,7.87
2019-03-23T04:22:38.517Z,7.88
2019-03-23T04:25:10.035Z,7.82
2019-03-23T04:27:41.012Z,7.73
2019-03-23T04:30:12.533Z,7.66
2019-03-23T04:32:43.563Z,7.80
2019-03-23T04:35:14.795Z,7.79
2019-03-23T04:37:45.831Z,7.69
2019-03-23T04:40:17.025Z,7.77
2019-03-23T04:42:48.603Z,7.87
2019-03-23T04:45:19.725Z,7.95
2019-03-23T04:47:50.746Z,7.99
2019-03-23T04:50:21.744Z,8.06
2019-03-23T04:52:52.726Z,8.10
2019-03-23T04:55:23.742Z,8.08
2019-03-23T04:57:54.770Z,7.89
2019-03-23T05:00:25.798Z,8.01
2019-03-23T05:02:56.814Z,8.08
2019-03-23T05:05:27.801Z,8.22
2019-03-23T05:07:58.827Z,8.25
2019-03-23T05:10:29.852Z,8.29
2019-03-23T05:13:00.845Z,8.46
2019-03-23T05:15:31.886Z,8.53
2019-03-23T05:18:02.932Z,8.56
2019-03-23T05:20:34.131Z,8.63
2019-03-23T05:23:05.123Z,8.84
2019-03-23T05:25:36.148Z,8.98
2019-03-23T05:28:07.125Z,9.00
2019-03-23T05:30:38.154Z,9.13
2019-03-23T05:33:09.178Z,9.25
2019-03-23T05:35:40.166Z,9.41
2019-03-23T05:38:11.190Z,9.60
2019-03-23T05:40:42.197Z,9.88
2019-03-23T05:43:13.185Z,10.01
2019-03-23T05:45:44.183Z,10.26
2019-03-23T05:48:15.278Z,10.33
2019-03-23T05:50:46.312Z,10.58
2019-03-23T05:53:17.343Z,10.67
2019-03-23T05:55:48.380Z,10.78
2019-03-23T05:58:19.416Z,10.96
2019-03-23T06:00:50.391Z,11.16
2019-03-23T06:03:21.434Z,11.22
2019-03-23T06:05:52.426Z,11.42
2019-03-23T06:08:23.469Z,11.55
2019-03-23T06:10:54.458Z,11.70
2019-03-23T06:13:25.498Z,11.77
2019-03-23T06:15:56.500Z,11.86
2019-03-23T06:18:27.537Z,12.16
2019-03-23T06:20:58.580Z,12.03
2019-03-23T06:23:29.583Z,12.19
2019-03-23T06:26:00.575Z,12.04
2019-03-23T06:28:31.603Z,12.22
2019-03-23T06:31:02.593Z,12.41
2019-03-23T06:33:33.624Z,12.74
2019-03-23T06:36:04.695Z,12.90
2019-03-23T06:38:35.684Z,13.02
2019-03-23T06:41:06.787Z,13.07
2019-03-23T06:43:37.928Z,13.11
2019-03-23T06:46:08.928Z,13.40
2019-03-23T06:48:39.968Z,13.55
2019-03-23T06:51:11.004Z,13.34
2019-03-23T06:53:42.047Z,13.54
2019-03-23T06:56:13.036Z,13.85
2019-03-23T06:58:44.067Z,14.02
2019-03-23T07:01:15.103Z,14.20
2019-03-23T07:03:46.134Z,14.47
2019-03-23T07:06:17.173Z,14.65
2019-03-23T07:08:48.267Z,14.62
2019-03-23T07:11:19.300Z,14.85
2019-03-23T07:13:50.337Z,14.97
2019-03-23T07:16:21.346Z,15.15
2019-03-23T07:18:52.389Z,15.16
2019-03-23T07:21:23.433Z,15.11
2019-03-23T07:23:54.433Z,14.58
2019-03-23T07:26:25.459Z,14.93
2019-03-23T07:28:56.445Z,15.15
2019-03-23T07:31:27.482Z,15.29
2019-03-23T07:33:58.486Z,15.25
2019-03-23T07:36:29.511Z,15.50
2019-03-23T07:39:00.538Z,15.55
2019-03-23T07:41:31.533Z,15.63
2019-03-23T07:44:02.564Z,15.73
2019-03-23T07:46:33.707Z,15.58
2019-03-23T07:49:04.799Z,15.63
2019-03-23T07:51:35.799Z,15.88
2019-03-23T07:54:06.852Z,16.00
2019-03-23T07:56:37.845Z,16.02
2019-03-23T07:59:08.846Z,16.08
2019-03-23T08:01:39.881Z,16.02
2019-03-23T08:04:10.869Z,16.12
2019-03-23T08:06:41.909Z,16.13
2019-03-23T08:09:20.444Z,16.17
2019-03-23T08:11:45.603Z,16.39
2019-03-23T08:14:16.637Z,16.53
2019-03-23T08:16:47.635Z,16.77
2019-03-23T08:19:18.685Z,16.76
2019-03-23T08:21:49.730Z,16.90
2019-03-23T08:24:20.722Z,16.97
2019-03-23T08:26:51.762Z,16.87
2019-03-23T08:29:22.749Z,17.08
2019-03-23T08:31:54.545Z,17.14
2019-03-23T08:34:25.556Z,17.07
2019-03-23T08:36:56.593Z,17.30
2019-03-23T08:39:27.589Z,17.42
2019-03-23T08:41:58.634Z,17.28
2019-03-23T08:44:31.578Z,17.47
2019-03-23T08:47:02.363Z,17.53
2019-03-23T08:49:33.360Z,17.49
2019-03-23T08:52:04.405Z,17.41
2019-03-23T08:54:35.397Z,17.36
2019-03-23T08:57:06.442Z,17.61
2019-03-23T08:59:37.470Z,17.75
2019-03-23T09:02:08.470Z,17.73
2019-03-23T09:04:39.515Z,17.80
2019-03-23T09:07:10.608Z,17.87
2019-03-23T09:09:41.718Z,17.89
2019-03-23T09:12:12.810Z,18.10
2019-03-23T09:14:43.821Z,17.91
2019-03-23T09:17:14.850Z,17.99
2019-03-23T09:19:45.843Z,18.11
2019-03-23T09:22:16.888Z,18.19
2019-03-23T09:24:47.882Z,18.17
2019-03-23T09:27:18.909Z,18.34
2019-03-23T09:29:49.897Z,18.41
2019-03-23T09:32:20.926Z,18.50
2019-03-23T09:34:51.917Z,18.56
2019-03-23T09:37:22.905Z,18.54
2019-03-23T09:39:53.917Z,18.70
2019-03-23T09:42:24.946Z,18.69
2019-03-23T09:44:55.925Z,18.78
2019-03-23T09:47:26.923Z,18.78
2019-03-23T09:49:57.950Z,18.86
2019-03-23T09:52:28.942Z,18.90
2019-03-23T09:55:00.023Z,18.98
2019-03-23T09:57:31.021Z,19.09
2019-03-23T10:00:02.040Z,19.08
2019-03-23T10:02:33.049Z,18.99
2019-03-23T10:05:04.267Z,19.03
2019-03-23T10:07:35.297Z,19.12
2019-03-23T10:10:06.795Z,19.21
2019-03-23T10:12:37.925Z,19.28
2019-03-23T10:15:10.541Z,19.42
2019-03-23T10:17:41.524Z,19.42
2019-03-23T10:20:12.715Z,19.51
2019-03-23T10:22:43.734Z,19.50
2019-03-23T10:25:14.723Z,19.56
2019-03-23T10:27:45.738Z,19.67
2019-03-23T10:30:16.967Z,19.74
2019-03-23T10:32:47.951Z,19.74
2019-03-23T10:35:19.179Z,19.75
2019-03-23T10:37:50.209Z,19.63
2019-03-23T10:40:31.675Z,19.60
2019-03-23T10:42:53.912Z,19.57
2019-03-23T10:45:24.889Z,19.62
2019-03-23T10:50:26.913Z,19.42
2019-03-23T10:52:57.940Z,19.33
2019-03-23T10:55:28.968Z,19.41
2019-03-23T10:58:00.112Z,19.34
2019-03-23T11:00:31.109Z,19.37
2019-03-23T11:03:02.107Z,19.51
2019-03-23T11:05:33.151Z,19.55
2019-03-23T11:08:04.132Z,19.53
2019-03-23T11:10:41.698Z,19.57
2019-03-23T11:13:07.931Z,19.51
2019-03-23T11:15:38.945Z,19.61
2019-03-23T11:18:09.932Z,19.57
2019-03-23T11:20:40.989Z,19.60
2019-03-23T11:23:11.970Z,19.62
2019-03-23T11:25:42.957Z,19.81
2019-03-23T11:28:13.999Z,19.94
2019-03-23T11:30:44.993Z,20.18
2019-03-23T11:33:15.968Z,20.26
2019-03-23T11:35:57.266Z,20.44
2019-03-23T11:38:19.748Z,20.45
2019-03-23T11:40:54.079Z,20.38
2019-03-23T11:43:23.467Z,20.43
2019-03-23T11:45:54.549Z,20.27
2019-03-23T11:48:25.572Z,20.46
2019-03-23T11:50:56.562Z,20.58
2019-03-23T11:53:27.580Z,20.72
2019-03-23T11:55:58.608Z,20.69
2019-03-23T11:58:29.630Z,20.72
2019-03-23T12:01:00.722Z,20.62
2019-03-23T12:03:31.811Z,20.79
2019-03-23T12:06:02.800Z,20.87
2019-03-23T12:08:33.835Z,20.97
2019-03-23T12:11:04.878Z,20.97
2019-03-23T12:13:35.865Z,20.79
2019-03-23T12:16:06.862Z,20.85
2019-03-23T12:18:37.850Z,20.76
2019-03-23T12:21:08.883Z,20.92
2019-03-23T12:23:39.864Z,20.89
2019-03-23T12:26:10.898Z,20.85
2019-03-23T12:28:41.928Z,20.96
2019-03-23T12:31:12.920Z,21.17
2019-03-23T12:33:43.911Z,21.04
2019-03-23T12:36:14.918Z,21.14
2019-03-23T12:38:46.046Z,21.12
2019-03-23T12:41:23.086Z,21.25
2019-03-23T12:43:49.767Z,21.37
2019-03-23T12:46:20.794Z,21.47
2019-03-23T12:48:51.777Z,21.54
2019-03-23T12:51:22.798Z,21.37
2019-03-23T12:53:53.790Z,21.00
2019-03-23T12:56:24.813Z,21.62
2019-03-23T12:58:55.792Z,21.74
2019-03-23T13:01:27.822Z,21.62
2019-03-23T13:03:58.885Z,21.72
2019-03-23T13:06:29.913Z,21.75
2019-03-23T13:09:00.900Z,21.87
2019-03-23T13:11:35.644Z,21.83
2019-03-23T13:14:04.692Z,21.83
2019-03-23T13:16:35.723Z,21.81
2019-03-23T13:19:06.705Z,21.77
2019-03-23T13:21:37.694Z,21.60
2019-03-23T13:24:08.700Z,21.58
2019-03-23T13:26:39.781Z,21.50
2019-03-23T13:29:10.800Z,21.47
2019-03-23T13:31:41.810Z,21.42
2019-03-23T13:34:12.845Z,21.52
2019-03-23T13:36:43.831Z,21.60
2019-03-23T13:39:14.855Z,21.60
2019-03-23T13:41:52.427Z,21.72
2019-03-23T13:44:23.452Z,21.62
2019-03-23T13:46:54.447Z,21.71
2019-03-23T13:49:25.468Z,21.78
2019-03-23T13:51:56.501Z,21.76
2019-03-23T13:54:27.527Z,21.63
2019-03-23T13:56:58.609Z,21.77
2019-03-23T13:59:29.596Z,21.78
2019-03-23T14:02:00.579Z,21.84
2019-03-23T14:04:31.589Z,21.91
2019-03-23T14:07:02.567Z,21.92
2019-03-23T14:09:33.591Z,21.96
2019-03-23T14:12:04.677Z,21.99
2019-03-23T14:14:35.694Z,22.03
2019-03-23T14:17:06.697Z,21.96
2019-03-23T14:19:37.697Z,22.02
2019-03-23T14:22:08.736Z,22.02
2019-03-23T14:24:39.761Z,21.87
2019-03-23T14:27:10.744Z,21.82
2019-03-23T14:29:41.761Z,21.78
2019-03-23T14:32:12.743Z,21.67
2019-03-23T14:34:43.738Z,21.58
2019-03-23T14:37:14.773Z,21.36
2019-03-23T14:39:45.758Z,21.19
2019-03-23T14:42:16.789Z,21.12
2019-03-23T14:44:47.880Z,20.99
2019-03-23T14:47:18.934Z,20.87
2019-03-23T14:49:49.965Z,20.78
2019-03-23T14:52:21.001Z,20.65
2019-03-23T14:54:51.984Z,20.59
2019-03-23T14:57:22.996Z,20.51
2019-03-23T14:59:54.013Z,20.50
2019-03-23T15:02:24.998Z,20.48
2019-03-23T15:04:56.022Z,20.42
2019-03-23T15:07:27.001Z,20.39
2019-03-23T15:09:58.025Z,20.30
2019-03-23T15:12:29.064Z,20.24
2019-03-23T15:15:00.031Z,20.20
2019-03-23T15:17:31.016Z,20.16
2019-03-23T15:20:02.042Z,20.13
2019-03-23T15:22:33.028Z,20.08
2019-03-23T15:25:04.267Z,20.08
2019-03-23T15:27:35.262Z,20.06
2019-03-23T15:30:06.904Z,20.06
2019-03-23T15:32:37.930Z,20.04
2019-03-23T15:35:09.125Z,20.04
2019-03-23T15:37:40.194Z,20.01
2019-03-23T15:40:11.480Z,19.90
2019-03-23T15:42:42.567Z,19.90
2019-03-23T15:45:14.005Z,19.81
2019-03-23T15:47:45.055Z,19.85
2019-03-23T15:50:16.254Z,19.80
2019-03-23T15:52:47.278Z,19.79
2019-03-23T15:55:18.262Z,19.70
2019-03-23T15:57:49.250Z,19.69
2019-03-23T16:00:20.590Z,19.61
2019-03-23T16:02:51.569Z,19.62
2019-03-23T16:05:22.545Z,19.56
2019-03-23T16:07:53.575Z,19.48
2019-03-23T16:10:24.518Z,19.43
2019-03-23T16:12:55.543Z,19.29
2019-03-23T16:15:26.559Z,19.27
2019-03-23T16:17:57.553Z,19.17
2019-03-23T16:20:28.591Z,19.08
2019-03-23T16:22:59.672Z,18.94
2019-03-23T16:25:30.661Z,18.88
2019-03-23T16:28:01.699Z,18.79
2019-03-23T16:30:33.674Z,18.71
2019-03-23T16:33:04.760Z,18.60
2019-03-23T16:35:35.749Z,18.48
2019-03-23T16:38:06.776Z,18.36
2019-03-23T16:40:37.752Z,18.20
2019-03-23T16:43:08.777Z,18.19
2019-03-23T16:45:39.791Z,18.13
2019-03-23T16:48:10.777Z,18.08
2019-03-23T16:50:41.770Z,17.98
2019-03-23T16:53:12.740Z,17.92
2019-03-23T16:55:43.761Z,17.83
2019-03-23T16:58:16.285Z,17.75
2019-03-23T17:00:47.462Z,17.60
2019-03-23T17:03:18.539Z,17.52
2019-03-23T17:05:49.487Z,17.44
2019-03-23T17:08:20.482Z,17.38
2019-03-23T17:10:51.489Z,17.29
2019-03-23T17:13:22.519Z,17.22
2019-03-23T17:15:53.504Z,17.12
2019-03-23T17:18:24.528Z,17.02
2019-03-23T17:20:55.513Z,16.94
2019-03-23T17:23:26.586Z,16.84
2019-03-23T17:25:57.586Z,16.77
2019-03-23T17:28:28.606Z,16.68
2019-03-23T17:30:59.592Z,16.59
2019-03-23T17:33:30.612Z,16.48
2019-03-23T17:36:01.688Z,16.40
2019-03-23T17:38:32.725Z,16.30
2019-03-23T17:41:03.727Z,16.21
2019-03-23T17:43:34.767Z,16.12
2019-03-23T17:46:05.905Z,15.99
2019-03-23T17:48:36.898Z,15.92
2019-03-23T17:51:07.889Z,15.89
2019-03-23T17:53:38.920Z,15.87
2019-03-23T17:56:09.920Z,15.80
2019-03-23T17:58:40.928Z,15.77
2019-03-23T18:01:19.282Z,15.72
2019-03-23T18:03:47.879Z,15.68
2019-03-23T18:06:18.905Z,15.60
2019-03-23T18:08:49.947Z,15.56
2019-03-23T18:11:20.942Z,15.49
2019-03-23T18:13:51.950Z,15.45
2019-03-23T18:16:23.130Z,15.36
2019-03-23T18:18:54.123Z,15.25
2019-03-23T18:21:25.160Z,15.11
2019-03-23T18:23:56.141Z,14.95
2019-03-23T18:26:27.283Z,14.92
2019-03-23T18:28:58.269Z,14.80
2019-03-23T18:31:29.302Z,14.75
2019-03-23T18:34:00.289Z,14.71
2019-03-23T18:36:31.423Z,14.67
2019-03-23T18:39:03.309Z,14.56
2019-03-23T18:41:35.816Z,14.51
2019-03-23T18:44:15.814Z,14.45
2019-03-23T18:46:40.000Z,14.45
2019-03-23T18:49:10.988Z,14.41
2019-03-23T18:51:42.048Z,14.34
2019-03-23T18:54:13.046Z,14.30
2019-03-23T18:56:44.032Z,14.27
2019-03-23T18:59:15.065Z,14.23
2019-03-23T19:01:46.063Z,14.15
2019-03-23T19:04:17.114Z,14.08
2019-03-23T19:06:48.114Z,14.04
2019-03-23T19:09:19.121Z,13.96
2019-03-23T19:11:50.165Z,13.91
2019-03-23T19:14:21.206Z,13.83
2019-03-23T19:16:52.243Z,13.77
2019-03-23T19:19:23.265Z,13.70
2019-03-23T19:21:54.289Z,13.66
2019-03-23T19:24:25.322Z,13.60
2019-03-23T19:26:56.361Z,13.53
2019-03-23T19:29:27.750Z,13.40
2019-03-23T19:31:58.862Z,13.35
2019-03-23T19:34:29.853Z,13.24
2019-03-23T19:37:00.891Z,13.13
2019-03-23T19:39:31.966Z,13.02
2019-03-23T19:42:02.998Z,12.89
2019-03-23T19:44:33.996Z,12.83
2019-03-23T19:47:05.034Z,12.65
2019-03-23T19:49:36.022Z,12.50
2019-03-23T19:52:07.264Z,12.41
2019-03-23T19:54:38.294Z,12.27
2019-03-23T19:57:09.282Z,12.25
2019-03-23T19:59:40.327Z,12.16
2019-03-23T20:02:11.366Z,12.11
2019-03-23T20:04:42.403Z,12.07
2019-03-23T20:07:13.397Z,12.11
2019-03-23T20:09:44.404Z,12.05
2019-03-23T20:12:15.449Z,12.05
2019-03-23T20:14:46.443Z,11.94
2019-03-23T20:17:17.473Z,11.97
2019-03-23T20:19:48.468Z,11.99
2019-03-23T20:22:19.599Z,11.98
2019-03-23T20:24:50.583Z,11.94
2019-03-23T20:27:24.041Z,11.92
2019-03-23T20:29:54.912Z,11.89
2019-03-23T20:32:25.935Z,11.85
2019-03-23T20:34:56.967Z,11.77
2019-03-23T20:37:27.959Z,11.71
2019-03-23T20:39:59.039Z,11.64
2019-03-23T20:42:30.089Z,11.61
2019-03-23T20:45:01.124Z,11.57
2019-03-23T20:47:32.112Z,11.52
2019-03-23T20:50:03.222Z,11.53
2019-03-23T20:52:34.266Z,11.46
2019-03-23T20:55:05.581Z,11.37
2019-03-23T20:57:37.569Z,11.29
2019-03-23T21:00:09.539Z,11.23
2019-03-23T21:02:40.567Z,11.14
2019-03-23T21:05:11.667Z,11.02
2019-03-23T21:07:42.658Z,10.92
2019-03-23T21:10:13.737Z,10.80
2019-03-23T21:12:44.756Z,10.82
2019-03-23T21:15:15.844Z,10.81
2019-03-23T21:17:51.425Z,10.69
2019-03-23T21:20:19.661Z,10.53
2019-03-23T21:22:50.690Z,10.48
2019-03-23T21:25:21.731Z,10.42
2019-03-23T21:27:52.722Z,10.32
2019-03-23T21:30:24.060Z,9.26
2019-03-23T21:32:55.098Z,10.19
2019-03-23T21:35:26.091Z,10.19
2019-03-23T21:37:57.126Z,10.14
2019-03-23T21:40:28.150Z,10.12
2019-03-23T21:42:59.163Z,10.13
2019-03-23T21:45:30.287Z,10.02
2019-03-23T21:48:01.306Z,9.97
2019-03-23T21:50:32.330Z,9.98
2019-03-23T21:53:03.307Z,9.94
2019-03-23T21:55:34.318Z,9.89
2019-03-23T21:58:05.306Z,9.81
2019-03-23T22:00:37.181Z,9.78
2019-03-23T22:03:08.264Z,9.81
2019-03-23T22:05:39.288Z,9.78
2019-03-23T22:08:10.269Z,9.81
2019-03-23T22:10:41.292Z,9.83
2019-03-23T22:13:12.272Z,9.90
2019-03-23T22:15:43.286Z,9.99
2019-03-23T22:18:14.263Z,9.93
2019-03-23T22:20:45.294Z,9.99
2019-03-23T22:23:16.278Z,10.03
2019-03-23T22:25:47.732Z,10.09
2019-03-23T22:28:18.720Z,10.13
2019-03-23T22:30:49.715Z,10.15
2019-03-23T22:33:20.721Z,10.18
2019-03-23T22:35:51.784Z,10.18
2019-03-23T22:38:22.808Z,10.22
2019-03-23T22:40:53.788Z,10.24
2019-03-23T22:43:24.776Z,10.20
2019-03-23T22:45:55.802Z,10.24
2019-03-23T22:48:26.790Z,10.19
2019-03-23T22:50:57.775Z,10.29
2019-03-23T22:53:28.802Z,10.32
2019-03-23T22:55:59.813Z,10.21
2019-03-23T22:58:30.840Z,10.35
2019-03-23T23:01:01.965Z,10.46
2019-03-23T23:03:32.956Z,10.49
2019-03-23T23:06:04.092Z,10.46
2019-03-23T23:08:35.064Z,10.55
2019-03-23T23:11:06.249Z,10.65
2019-03-23T23:13:37.274Z,10.71
2019-03-23T23:16:08.263Z,10.72
2019-03-23T23:18:39.282Z,10.79
2019-03-23T23:21:10.266Z,10.84
2019-03-23T23:23:41.296Z,10.89
2019-03-23T23:26:12.380Z,10.92
2019-03-23T23:28:43.410Z,10.95
2019-03-23T23:31:14.400Z,10.96
2019-03-23T23:33:45.526Z,10.94
2019-03-23T23:36:16.548Z,10.96
2019-03-23T23:38:47.537Z,10.97
2019-03-23T23:41:18.563Z,10.99
2019-03-23T23:43:49.552Z,11.03
2019-03-23T23:46:20.569Z,11.03
2019-03-23T23:48:51.770Z,11.04
2019-03-23T23:51:22.755Z,11.01
2019-03-23T23:53:53.781Z,11.03
2019-03-23T23:56:24.780Z,11.01
2019-03-23T23:58:55.768Z,10.96
